sensor_id;sensor_type;location;lat;lon;timestamp;temperature;humidity
37232;DHT22;23125;48.156;15.954;2022-11-20T00:01:22;6.00;61.70
37232;DHT22;23125;48.156;15.954;2022-11-20T00:03:50;6.00;61.70
37232;DHT22;23125;48.156;15.954;2022-11-20T00:06:18;5.90;61.60
37232;DHT22;23125;48.156;15.954;2022-11-20T00:08:45;6.00;61.60
37232;DHT22;23125;48.156;15.954;2022-11-20T00:11:19;5.90;61.60
37232;DHT22;23125;48.156;15.954;2022-11-20T00:13:48;5.90;61.70
37232;DHT22;23125;48.156;15.954;2022-11-20T00:16:16;5.90;61.70
37232;DHT22;23125;48.156;15.954;2022-11-20T00:18:43;5.90;61.70
37232;DHT22;23125;48.156;15.954;2022-11-20T00:21:16;5.90;61.60
37232;DHT22;23125;48.156;15.954;2022-11-20T00:23:42;5.90;61.70
37232;DHT22;23125;48.156;15.954;2022-11-20T00:26:11;5.90;61.80
37232;DHT22;23125;48.156;15.954;2022-11-20T00:28:37;5.90;61.80
37232;DHT22;23125;48.156;15.954;2022-11-20T00:31:12;5.90;61.80
37232;DHT22;23125;48.156;15.954;2022-11-20T00:33:38;5.90;61.80
37232;DHT22;23125;48.156;15.954;2022-11-20T00:36:07;5.90;61.70
37232;DHT22;23125;48.156;15.954;2022-11-20T00:38:33;5.90;61.70
37232;DHT22;23125;48.156;15.954;2022-11-20T00:41:02;5.90;61.80
37232;DHT22;23125;48.156;15.954;2022-11-20T00:43:28;5.90;61.80
37232;DHT22;23125;48.156;15.954;2022-11-20T00:46:02;5.90;61.80
37232;DHT22;23125;48.156;15.954;2022-11-20T00:48:29;5.90;61.90
37232;DHT22;23125;48.156;15.954;2022-11-20T00:50:55;5.90;61.90
37232;DHT22;23125;48.156;15.954;2022-11-20T00:53:22;5.80;61.70
37232;DHT22;23125;48.156;15.954;2022-11-20T00:56:00;5.80;61.60
37232;DHT22;23125;48.156;15.954;2022-11-20T00:58:32;5.80;61.70
37232;DHT22;23125;48.156;15.954;2022-11-20T01:01:18;5.80;61.80
37232;DHT22;23125;48.156;15.954;2022-11-20T01:03:46;5.80;61.90
37232;DHT22;23125;48.156;15.954;2022-11-20T01:06:16;5.80;61.90
37232;DHT22;23125;48.156;15.954;2022-11-20T01:08:43;5.80;61.90
37232;DHT22;23125;48.156;15.954;2022-11-20T01:11:11;5.80;61.90
37232;DHT22;23125;48.156;15.954;2022-11-20T01:13:38;5.80;61.90
37232;DHT22;23125;48.156;15.954;2022-11-20T01:18:30;5.80;62.00
37232;DHT22;23125;48.156;15.954;2022-11-20T01:21:00;5.80;62.00
37232;DHT22;23125;48.156;15.954;2022-11-20T01:23:31;5.80;62.10
37232;DHT22;23125;48.156;15.954;2022-11-20T01:25:59;5.90;62.10
37232;DHT22;23125;48.156;15.954;2022-11-20T01:28:26;5.80;62.00
37232;DHT22;23125;48.156;15.954;2022-11-20T01:30:52;5.80;62.00
37232;DHT22;23125;48.156;15.954;2022-11-20T01:33:17;5.90;62.20
37232;DHT22;23125;48.156;15.954;2022-11-20T01:35:43;5.80;62.10
37232;DHT22;23125;48.156;15.954;2022-11-20T01:38:09;5.80;62.10
37232;DHT22;23125;48.156;15.954;2022-11-20T01:40:35;5.80;62.10
37232;DHT22;23125;48.156;15.954;2022-11-20T01:43:27;5.80;62.20
37232;DHT22;23125;48.156;15.954;2022-11-20T01:48:37;5.90;62.20
37232;DHT22;23125;48.156;15.954;2022-11-20T01:51:07;5.90;62.20
37232;DHT22;23125;48.156;15.954;2022-11-20T01:53:38;5.90;62.20
37232;DHT22;23125;48.156;15.954;2022-11-20T01:56:08;5.90;62.20
37232;DHT22;23125;48.156;15.954;2022-11-20T01:58:38;5.90;62.20
37232;DHT22;23125;48.156;15.954;2022-11-20T02:01:06;5.90;62.20
37232;DHT22;23125;48.156;15.954;2022-11-20T02:03:31;5.90;62.20
37232;DHT22;23125;48.156;15.954;2022-11-20T02:06:19;5.90;62.20
37232;DHT22;23125;48.156;15.954;2022-11-20T02:08:47;5.90;62.20
37232;DHT22;23125;48.156;15.954;2022-11-20T02:11:13;5.90;62.20
37232;DHT22;23125;48.156;15.954;2022-11-20T02:13:38;5.90;62.20
37232;DHT22;23125;48.156;15.954;2022-11-20T02:16:33;6.00;62.20
37232;DHT22;23125;48.156;15.954;2022-11-20T02:19:02;6.00;62.20
37232;DHT22;23125;48.156;15.954;2022-11-20T02:21:46;6.00;62.20
37232;DHT22;23125;48.156;15.954;2022-11-20T02:24:21;6.00;62.20
37232;DHT22;23125;48.156;15.954;2022-11-20T02:26:53;6.00;62.20
37232;DHT22;23125;48.156;15.954;2022-11-20T02:29:40;6.00;62.20
37232;DHT22;23125;48.156;15.954;2022-11-20T02:32:21;6.00;62.30
37232;DHT22;23125;48.156;15.954;2022-11-20T02:34:47;6.00;62.30
37232;DHT22;23125;48.156;15.954;2022-11-20T02:37:14;6.00;62.20
37232;DHT22;23125;48.156;15.954;2022-11-20T02:39:40;6.00;62.20
37232;DHT22;23125;48.156;15.954;2022-11-20T02:42:07;6.00;62.30
37232;DHT22;23125;48.156;15.954;2022-11-20T02:44:33;6.00;62.40
37232;DHT22;23125;48.156;15.954;2022-11-20T02:46:59;6.00;62.40
37232;DHT22;23125;48.156;15.954;2022-11-20T02:49:25;6.00;62.40
37232;DHT22;23125;48.156;15.954;2022-11-20T02:51:51;6.00;62.40
37232;DHT22;23125;48.156;15.954;2022-11-20T02:54:17;6.00;62.30
37232;DHT22;23125;48.156;15.954;2022-11-20T02:56:43;6.00;62.30
37232;DHT22;23125;48.156;15.954;2022-11-20T02:59:09;6.00;62.40
37232;DHT22;23125;48.156;15.954;2022-11-20T03:01:35;6.00;62.30
37232;DHT22;23125;48.156;15.954;2022-11-20T03:04:02;6.00;62.30
37232;DHT22;23125;48.156;15.954;2022-11-20T03:06:28;6.00;62.30
37232;DHT22;23125;48.156;15.954;2022-11-20T03:08:54;6.00;62.30
37232;DHT22;23125;48.156;15.954;2022-11-20T03:11:20;6.00;62.30
37232;DHT22;23125;48.156;15.954;2022-11-20T03:13:46;6.10;62.30
37232;DHT22;23125;48.156;15.954;2022-11-20T03:16:14;6.00;62.30
37232;DHT22;23125;48.156;15.954;2022-11-20T03:18:41;6.10;62.40
37232;DHT22;23125;48.156;15.954;2022-11-20T03:21:09;6.10;62.40
37232;DHT22;23125;48.156;15.954;2022-11-20T03:23:36;6.10;62.40
37232;DHT22;23125;48.156;15.954;2022-11-20T03:26:12;6.10;62.40
37232;DHT22;23125;48.156;15.954;2022-11-20T03:28:38;6.10;62.40
37232;DHT22;23125;48.156;15.954;2022-11-20T03:31:06;6.10;62.30
37232;DHT22;23125;48.156;15.954;2022-11-20T03:33:32;6.10;62.40
37232;DHT22;23125;48.156;15.954;2022-11-20T03:36:05;6.10;62.40
37232;DHT22;23125;48.156;15.954;2022-11-20T03:38:33;6.10;62.40
37232;DHT22;23125;48.156;15.954;2022-11-20T03:41:09;6.10;62.40
37232;DHT22;23125;48.156;15.954;2022-11-20T03:43:35;6.10;62.40
37232;DHT22;23125;48.156;15.954;2022-11-20T03:46:02;6.10;62.30
37232;DHT22;23125;48.156;15.954;2022-11-20T03:48:28;6.10;62.30
37232;DHT22;23125;48.156;15.954;2022-11-20T03:51:08;6.10;62.30
37232;DHT22;23125;48.156;15.954;2022-11-20T03:53:34;6.10;62.40
37232;DHT22;23125;48.156;15.954;2022-11-20T03:56:00;6.10;62.30
37232;DHT22;23125;48.156;15.954;2022-11-20T03:58:26;6.10;62.30
37232;DHT22;23125;48.156;15.954;2022-11-20T04:00:52;6.10;62.40
37232;DHT22;23125;48.156;15.954;2022-11-20T04:03:17;6.10;62.50
37232;DHT22;23125;48.156;15.954;2022-11-20T04:05:43;6.10;62.40
37232;DHT22;23125;48.156;15.954;2022-11-20T04:08:09;6.10;62.40
37232;DHT22;23125;48.156;15.954;2022-11-20T04:10:35;6.10;62.50
37232;DHT22;23125;48.156;15.954;2022-11-20T04:13:01;6.10;62.50
37232;DHT22;23125;48.156;15.954;2022-11-20T04:15:27;6.10;62.50
37232;DHT22;23125;48.156;15.954;2022-11-20T04:17:54;6.10;62.40
37232;DHT22;23125;48.156;15.954;2022-11-20T04:20:19;6.10;62.30
37232;DHT22;23125;48.156;15.954;2022-11-20T04:22:45;6.10;62.30
37232;DHT22;23125;48.156;15.954;2022-11-20T04:25:11;6.10;62.40
37232;DHT22;23125;48.156;15.954;2022-11-20T04:27:37;6.10;62.40
37232;DHT22;23125;48.156;15.954;2022-11-20T04:30:03;6.10;62.50
37232;DHT22;23125;48.156;15.954;2022-11-20T04:32:29;6.10;62.50
37232;DHT22;23125;48.156;15.954;2022-11-20T04:34:55;6.10;62.50
37232;DHT22;23125;48.156;15.954;2022-11-20T04:37:21;6.10;62.50
37232;DHT22;23125;48.156;15.954;2022-11-20T04:39:46;6.10;62.50
37232;DHT22;23125;48.156;15.954;2022-11-20T04:42:12;6.10;62.50
37232;DHT22;23125;48.156;15.954;2022-11-20T04:44:57;6.10;62.60
37232;DHT22;23125;48.156;15.954;2022-11-20T04:47:23;6.10;62.60
37232;DHT22;23125;48.156;15.954;2022-11-20T04:49:49;6.10;62.50
37232;DHT22;23125;48.156;15.954;2022-11-20T04:52:14;6.10;62.50
37232;DHT22;23125;48.156;15.954;2022-11-20T04:54:40;6.10;62.50
37232;DHT22;23125;48.156;15.954;2022-11-20T04:57:06;6.10;62.50
37232;DHT22;23125;48.156;15.954;2022-11-20T04:59:32;6.10;62.50
37232;DHT22;23125;48.156;15.954;2022-11-20T05:01:57;6.20;62.60
37232;DHT22;23125;48.156;15.954;2022-11-20T05:04:23;6.20;62.50
37232;DHT22;23125;48.156;15.954;2022-11-20T05:06:50;6.20;62.50
37232;DHT22;23125;48.156;15.954;2022-11-20T05:09:15;6.10;62.40
37232;DHT22;23125;48.156;15.954;2022-11-20T05:11:41;6.10;62.40
37232;DHT22;23125;48.156;15.954;2022-11-20T05:14:07;6.10;62.50
37232;DHT22;23125;48.156;15.954;2022-11-20T05:16:34;6.10;62.50
37232;DHT22;23125;48.156;15.954;2022-11-20T05:19:00;6.10;62.50
37232;DHT22;23125;48.156;15.954;2022-11-20T05:21:26;6.10;62.50
37232;DHT22;23125;48.156;15.954;2022-11-20T05:23:53;6.10;62.50
37232;DHT22;23125;48.156;15.954;2022-11-20T05:26:20;6.10;62.50
37232;DHT22;23125;48.156;15.954;2022-11-20T05:28:47;6.20;62.60
37232;DHT22;23125;48.156;15.954;2022-11-20T05:31:19;6.10;62.50
37232;DHT22;23125;48.156;15.954;2022-11-20T05:33:45;6.10;62.60
37232;DHT22;23125;48.156;15.954;2022-11-20T05:36:14;6.10;62.60
37232;DHT22;23125;48.156;15.954;2022-11-20T05:38:40;6.10;62.70
37232;DHT22;23125;48.156;15.954;2022-11-20T05:41:15;6.10;62.60
37232;DHT22;23125;48.156;15.954;2022-11-20T05:43:42;6.20;62.70
37232;DHT22;23125;48.156;15.954;2022-11-20T05:46:10;6.10;62.70
37232;DHT22;23125;48.156;15.954;2022-11-20T05:48:38;6.20;62.60
37232;DHT22;23125;48.156;15.954;2022-11-20T05:51:07;6.20;62.70
37232;DHT22;23125;48.156;15.954;2022-11-20T05:53:34;6.20;62.60
37232;DHT22;23125;48.156;15.954;2022-11-20T05:56:03;6.20;62.70
37232;DHT22;23125;48.156;15.954;2022-11-20T05:58:30;6.20;62.70
37232;DHT22;23125;48.156;15.954;2022-11-20T06:01:04;6.20;62.60
37232;DHT22;23125;48.156;15.954;2022-11-20T06:03:31;6.20;62.70
37232;DHT22;23125;48.156;15.954;2022-11-20T06:05:59;6.20;62.70
37232;DHT22;23125;48.156;15.954;2022-11-20T06:08:25;6.20;62.60
37232;DHT22;23125;48.156;15.954;2022-11-20T06:10:51;6.20;62.60
37232;DHT22;23125;48.156;15.954;2022-11-20T06:13:17;6.10;62.60
37232;DHT22;23125;48.156;15.954;2022-11-20T06:15:49;6.10;62.60
37232;DHT22;23125;48.156;15.954;2022-11-20T06:18:15;6.10;62.60
37232;DHT22;23125;48.156;15.954;2022-11-20T06:20:41;6.10;62.60
37232;DHT22;23125;48.156;15.954;2022-11-20T06:23:07;6.10;62.60
37232;DHT22;23125;48.156;15.954;2022-11-20T06:25:33;6.10;62.60
37232;DHT22;23125;48.156;15.954;2022-11-20T06:27:58;6.10;62.70
37232;DHT22;23125;48.156;15.954;2022-11-20T06:30:24;6.10;62.70
37232;DHT22;23125;48.156;15.954;2022-11-20T06:32:50;6.10;62.80
37232;DHT22;23125;48.156;15.954;2022-11-20T06:35:16;6.10;62.80
37232;DHT22;23125;48.156;15.954;2022-11-20T06:37:42;6.10;62.80
37232;DHT22;23125;48.156;15.954;2022-11-20T06:40:09;6.10;62.80
37232;DHT22;23125;48.156;15.954;2022-11-20T06:42:35;6.20;62.80
37232;DHT22;23125;48.156;15.954;2022-11-20T06:45:01;6.20;62.80
37232;DHT22;23125;48.156;15.954;2022-11-20T06:47:27;6.20;62.90
37232;DHT22;23125;48.156;15.954;2022-11-20T06:49:52;6.20;63.50
37232;DHT22;23125;48.156;15.954;2022-11-20T06:52:19;6.20;62.70
37232;DHT22;23125;48.156;15.954;2022-11-20T06:54:45;6.10;62.60
37232;DHT22;23125;48.156;15.954;2022-11-20T06:57:10;6.10;62.50
37232;DHT22;23125;48.156;15.954;2022-11-20T06:59:36;6.10;62.50
37232;DHT22;23125;48.156;15.954;2022-11-20T07:02:02;6.10;62.80
37232;DHT22;23125;48.156;15.954;2022-11-20T07:04:28;6.10;62.90
37232;DHT22;23125;48.156;15.954;2022-11-20T07:06:54;6.10;63.00
37232;DHT22;23125;48.156;15.954;2022-11-20T07:09:19;6.10;63.10
37232;DHT22;23125;48.156;15.954;2022-11-20T07:11:45;6.10;63.10
37232;DHT22;23125;48.156;15.954;2022-11-20T07:14:11;6.10;63.20
37232;DHT22;23125;48.156;15.954;2022-11-20T07:16:37;6.20;63.20
37232;DHT22;23125;48.156;15.954;2022-11-20T07:19:03;6.20;63.20
37232;DHT22;23125;48.156;15.954;2022-11-20T07:21:29;6.20;63.20
37232;DHT22;23125;48.156;15.954;2022-11-20T07:23:54;6.20;63.20
37232;DHT22;23125;48.156;15.954;2022-11-20T07:26:20;6.20;63.20
37232;DHT22;23125;48.156;15.954;2022-11-20T07:28:47;6.20;63.20
37232;DHT22;23125;48.156;15.954;2022-11-20T07:31:12;6.20;63.20
37232;DHT22;23125;48.156;15.954;2022-11-20T07:33:38;6.30;63.20
37232;DHT22;23125;48.156;15.954;2022-11-20T07:36:04;6.30;63.30
37232;DHT22;23125;48.156;15.954;2022-11-20T07:38:30;6.30;63.30
37232;DHT22;23125;48.156;15.954;2022-11-20T07:40:57;6.30;63.30
37232;DHT22;23125;48.156;15.954;2022-11-20T07:43:29;6.30;63.30
37232;DHT22;23125;48.156;15.954;2022-11-20T07:45:56;6.40;63.30
37232;DHT22;23125;48.156;15.954;2022-11-20T07:48:22;6.40;63.90
37232;DHT22;23125;48.156;15.954;2022-11-20T07:50:48;6.40;63.30
37232;DHT22;23125;48.156;15.954;2022-11-20T07:53:14;6.40;63.30
37232;DHT22;23125;48.156;15.954;2022-11-20T07:55:46;6.40;63.40
37232;DHT22;23125;48.156;15.954;2022-11-20T07:58:12;6.50;63.40
37232;DHT22;23125;48.156;15.954;2022-11-20T08:00:40;6.50;63.40
37232;DHT22;23125;48.156;15.954;2022-11-20T08:03:07;6.60;63.50
37232;DHT22;23125;48.156;15.954;2022-11-20T08:05:33;6.50;63.40
37232;DHT22;23125;48.156;15.954;2022-11-20T08:07:59;6.60;63.50
37232;DHT22;23125;48.156;15.954;2022-11-20T08:10:25;6.60;63.50
37232;DHT22;23125;48.156;15.954;2022-11-20T08:12:52;6.60;63.50
37232;DHT22;23125;48.156;15.954;2022-11-20T08:15:38;6.70;63.60
37232;DHT22;23125;48.156;15.954;2022-11-20T08:18:07;6.70;63.60
37232;DHT22;23125;48.156;15.954;2022-11-20T08:20:34;6.70;63.60
37232;DHT22;23125;48.156;15.954;2022-11-20T08:23:02;6.70;63.70
37232;DHT22;23125;48.156;15.954;2022-11-20T08:25:31;6.80;63.80
37232;DHT22;23125;48.156;15.954;2022-11-20T08:27:58;6.80;63.70
37232;DHT22;23125;48.156;15.954;2022-11-20T08:30:25;6.90;63.70
37232;DHT22;23125;48.156;15.954;2022-11-20T08:32:51;6.90;63.80
37232;DHT22;23125;48.156;15.954;2022-11-20T08:35:17;6.90;63.70
37232;DHT22;23125;48.156;15.954;2022-11-20T08:37:46;6.90;63.80
37232;DHT22;23125;48.156;15.954;2022-11-20T08:40:12;7.00;63.90
37232;DHT22;23125;48.156;15.954;2022-11-20T08:42:48;7.10;63.90
37232;DHT22;23125;48.156;15.954;2022-11-20T08:45:15;7.00;63.80
37232;DHT22;23125;48.156;15.954;2022-11-20T08:47:42;7.10;63.70
37232;DHT22;23125;48.156;15.954;2022-11-20T08:50:09;7.10;64.00
37232;DHT22;23125;48.156;15.954;2022-11-20T08:52:35;7.20;64.10
37232;DHT22;23125;48.156;15.954;2022-11-20T08:55:01;7.20;64.20
37232;DHT22;23125;48.156;15.954;2022-11-20T08:57:27;7.30;64.40
37232;DHT22;23125;48.156;15.954;2022-11-20T08:59:52;7.40;64.60
37232;DHT22;23125;48.156;15.954;2022-11-20T09:02:18;7.50;64.40
37232;DHT22;23125;48.156;15.954;2022-11-20T09:04:44;7.50;64.20
37232;DHT22;23125;48.156;15.954;2022-11-20T09:07:10;7.50;64.00
37232;DHT22;23125;48.156;15.954;2022-11-20T09:09:36;7.50;63.80
37232;DHT22;23125;48.156;15.954;2022-11-20T09:12:02;7.50;63.80
37232;DHT22;23125;48.156;15.954;2022-11-20T09:14:28;7.50;63.70
37232;DHT22;23125;48.156;15.954;2022-11-20T09:16:56;7.60;63.70
37232;DHT22;23125;48.156;15.954;2022-11-20T09:19:23;7.60;63.70
37232;DHT22;23125;48.156;15.954;2022-11-20T09:21:49;7.60;63.70
37232;DHT22;23125;48.156;15.954;2022-11-20T09:24:15;7.60;63.70
37232;DHT22;23125;48.156;15.954;2022-11-20T09:26:42;7.60;63.70
37232;DHT22;23125;48.156;15.954;2022-11-20T09:29:07;7.70;63.70
37232;DHT22;23125;48.156;15.954;2022-11-20T09:31:33;7.70;63.80
37232;DHT22;23125;48.156;15.954;2022-11-20T09:33:59;7.70;63.50
37232;DHT22;23125;48.156;15.954;2022-11-20T09:36:25;7.70;63.60
37232;DHT22;23125;48.156;15.954;2022-11-20T09:38:52;7.70;63.60
37232;DHT22;23125;48.156;15.954;2022-11-20T09:55:50;8.00;64.90
37232;DHT22;23125;48.156;15.954;2022-11-20T09:58:29;8.00;64.70
37232;DHT22;23125;48.156;15.954;2022-11-20T10:01:09;8.10;64.70
37232;DHT22;23125;48.156;15.954;2022-11-20T10:06:20;8.20;64.70
37232;DHT22;23125;48.156;15.954;2022-11-20T10:25:24;8.80;64.80
37232;DHT22;23125;48.156;15.954;2022-11-20T10:28:02;8.90;64.40
37232;DHT22;23125;48.156;15.954;2022-11-20T10:30:36;8.90;64.20
37232;DHT22;23125;48.156;15.954;2022-11-20T10:33:23;8.90;64.20
37232;DHT22;23125;48.156;15.954;2022-11-20T10:36:08;9.00;64.40
37232;DHT22;23125;48.156;15.954;2022-11-20T10:41:33;9.10;64.50
37232;DHT22;23125;48.156;15.954;2022-11-20T10:44:10;9.20;64.40
37232;DHT22;23125;48.156;15.954;2022-11-20T10:46:44;9.20;64.10
37232;DHT22;23125;48.156;15.954;2022-11-20T10:49:16;9.30;63.80
37232;DHT22;23125;48.156;15.954;2022-11-20T10:54:36;9.40;64.40
37232;DHT22;23125;48.156;15.954;2022-11-20T11:00:10;9.60;65.10
37232;DHT22;23125;48.156;15.954;2022-11-20T11:05:29;9.80;64.70
37232;DHT22;23125;48.156;15.954;2022-11-20T11:07:58;9.90;65.00
37232;DHT22;23125;48.156;15.954;2022-11-20T11:13:03;10.10;65.10
37232;DHT22;23125;48.156;15.954;2022-11-20T11:15:37;10.30;65.00
37232;DHT22;23125;48.156;15.954;2022-11-20T11:18:04;10.30;64.80
37232;DHT22;23125;48.156;15.954;2022-11-20T11:20:30;10.50;64.70
37232;DHT22;23125;48.156;15.954;2022-11-20T11:22:58;10.50;64.40
37232;DHT22;23125;48.156;15.954;2022-11-20T11:27:54;10.70;64.00
37232;DHT22;23125;48.156;15.954;2022-11-20T11:30:23;10.70;63.60
37232;DHT22;23125;48.156;15.954;2022-11-20T11:32:49;10.70;63.30
37232;DHT22;23125;48.156;15.954;2022-11-20T11:35:25;10.70;63.10
37232;DHT22;23125;48.156;15.954;2022-11-20T11:37:53;10.70;62.80
37232;DHT22;23125;48.156;15.954;2022-11-20T11:40:21;10.70;62.70
37232;DHT22;23125;48.156;15.954;2022-11-20T11:42:56;10.70;62.50
37232;DHT22;23125;48.156;15.954;2022-11-20T11:45:22;10.60;62.40
37232;DHT22;23125;48.156;15.954;2022-11-20T11:47:50;10.60;62.30
37232;DHT22;23125;48.156;15.954;2022-11-20T11:50:23;10.60;62.30
37232;DHT22;23125;48.156;15.954;2022-11-20T11:58:16;10.50;62.10
37232;DHT22;23125;48.156;15.954;2022-11-20T12:03:34;10.30;62.00
37232;DHT22;23125;48.156;15.954;2022-11-20T12:06:13;10.30;62.10
37232;DHT22;23125;48.156;15.954;2022-11-20T12:08:50;10.30;62.20
37232;DHT22;23125;48.156;15.954;2022-11-20T12:16:34;10.10;62.30
37232;DHT22;23125;48.156;15.954;2022-11-20T12:19:01;10.10;62.30
37232;DHT22;23125;48.156;15.954;2022-11-20T12:21:35;10.10;62.40
37232;DHT22;23125;48.156;15.954;2022-11-20T12:29:31;10.00;62.60
37232;DHT22;23125;48.156;15.954;2022-11-20T12:38:26;10.00;62.90
37232;DHT22;23125;48.156;15.954;2022-11-20T12:43:34;9.90;62.90
37232;DHT22;23125;48.156;15.954;2022-11-20T12:52:28;9.90;63.10
37232;DHT22;23125;48.156;15.954;2022-11-20T12:55:16;9.90;63.20
37232;DHT22;23125;48.156;15.954;2022-11-20T13:00:20;9.90;63.30
37232;DHT22;23125;48.156;15.954;2022-11-20T13:02:57;9.90;63.30
37232;DHT22;23125;48.156;15.954;2022-11-20T13:05:43;9.90;63.40
37232;DHT22;23125;48.156;15.954;2022-11-20T13:08:24;9.90;64.10
37232;DHT22;23125;48.156;15.954;2022-11-20T13:14:03;10.00;63.70
37232;DHT22;23125;48.156;15.954;2022-11-20T13:19:34;9.90;63.60
37232;DHT22;23125;48.156;15.954;2022-11-20T13:22:00;10.00;63.60
37232;DHT22;23125;48.156;15.954;2022-11-20T13:24:29;10.00;63.70
37232;DHT22;23125;48.156;15.954;2022-11-20T13:29:35;10.00;64.00
37232;DHT22;23125;48.156;15.954;2022-11-20T13:34:29;10.10;64.00
37232;DHT22;23125;48.156;15.954;2022-11-20T13:36:58;10.10;64.00
37232;DHT22;23125;48.156;15.954;2022-11-20T13:39:36;10.10;64.10
37232;DHT22;23125;48.156;15.954;2022-11-20T13:44:38;10.20;64.30
37232;DHT22;23125;48.156;15.954;2022-11-20T13:47:22;10.20;63.70
37232;DHT22;23125;48.156;15.954;2022-11-20T13:49:49;10.20;63.70
37232;DHT22;23125;48.156;15.954;2022-11-20T14:01:05;10.20;63.60
37232;DHT22;23125;48.156;15.954;2022-11-20T14:03:34;10.20;63.50
37232;DHT22;23125;48.156;15.954;2022-11-20T14:06:10;10.10;63.40
37232;DHT22;23125;48.156;15.954;2022-11-20T14:08:46;10.10;63.30
37232;DHT22;23125;48.156;15.954;2022-11-20T14:11:19;10.10;63.30
37232;DHT22;23125;48.156;15.954;2022-11-20T14:13:54;10.00;63.20
37232;DHT22;23125;48.156;15.954;2022-11-20T14:16:21;10.00;63.20
37232;DHT22;23125;48.156;15.954;2022-11-20T14:18:47;10.00;63.00
37232;DHT22;23125;48.156;15.954;2022-11-20T14:21:27;9.90;62.90
37232;DHT22;23125;48.156;15.954;2022-11-20T14:24:06;9.80;63.00
37232;DHT22;23125;48.156;15.954;2022-11-20T14:26:33;9.70;62.80
37232;DHT22;23125;48.156;15.954;2022-11-20T14:28:59;9.70;63.00
37232;DHT22;23125;48.156;15.954;2022-11-20T14:31:26;9.60;62.80
37232;DHT22;23125;48.156;15.954;2022-11-20T14:33:54;9.60;62.90
37232;DHT22;23125;48.156;15.954;2022-11-20T14:36:23;9.50;62.80
37232;DHT22;23125;48.156;15.954;2022-11-20T14:38:50;9.50;62.70
37232;DHT22;23125;48.156;15.954;2022-11-20T14:41:22;9.40;62.70
37232;DHT22;23125;48.156;15.954;2022-11-20T14:43:56;9.40;62.70
37232;DHT22;23125;48.156;15.954;2022-11-20T14:46:23;9.30;62.70
37232;DHT22;23125;48.156;15.954;2022-11-20T14:48:53;9.20;62.50
37232;DHT22;23125;48.156;15.954;2022-11-20T14:53:54;9.10;62.50
37232;DHT22;23125;48.156;15.954;2022-11-20T14:56:24;9.00;62.40
37232;DHT22;23125;48.156;15.954;2022-11-20T14:58:57;9.00;62.60
37232;DHT22;23125;48.156;15.954;2022-11-20T15:01:31;8.90;63.10
37232;DHT22;23125;48.156;15.954;2022-11-20T15:04:09;8.80;62.50
37232;DHT22;23125;48.156;15.954;2022-11-20T15:06:36;8.70;62.50
37232;DHT22;23125;48.156;15.954;2022-11-20T15:09:04;8.70;62.50
37232;DHT22;23125;48.156;15.954;2022-11-20T15:11:33;8.60;62.50
37232;DHT22;23125;48.156;15.954;2022-11-20T15:14:06;8.60;62.50
37232;DHT22;23125;48.156;15.954;2022-11-20T15:16:34;8.50;62.50
37232;DHT22;23125;48.156;15.954;2022-11-20T15:19:00;8.50;62.50
37232;DHT22;23125;48.156;15.954;2022-11-20T15:21:28;8.40;62.40
37232;DHT22;23125;48.156;15.954;2022-11-20T15:23:57;8.40;62.40
37232;DHT22;23125;48.156;15.954;2022-11-20T15:26:26;8.30;62.20
37232;DHT22;23125;48.156;15.954;2022-11-20T15:28:52;8.20;62.10
37232;DHT22;23125;48.156;15.954;2022-11-20T15:31:21;8.20;62.20
37232;DHT22;23125;48.156;15.954;2022-11-20T15:33:48;8.10;62.20
37232;DHT22;23125;48.156;15.954;2022-11-20T15:36:14;8.00;62.20
37232;DHT22;23125;48.156;15.954;2022-11-20T15:38:39;8.00;62.30
37232;DHT22;23125;48.156;15.954;2022-11-20T15:41:06;7.90;62.30
37232;DHT22;23125;48.156;15.954;2022-11-20T15:43:33;7.90;62.40
37232;DHT22;23125;48.156;15.954;2022-11-20T15:46:05;7.90;62.40
37232;DHT22;23125;48.156;15.954;2022-11-20T15:48:37;7.80;62.30
37232;DHT22;23125;48.156;15.954;2022-11-20T15:53:39;7.70;62.30
37232;DHT22;23125;48.156;15.954;2022-11-20T15:56:09;7.60;62.30
37232;DHT22;23125;48.156;15.954;2022-11-20T15:58:37;7.60;62.30
37232;DHT22;23125;48.156;15.954;2022-11-20T16:01:03;7.60;62.40
37232;DHT22;23125;48.156;15.954;2022-11-20T16:03:29;7.50;62.30
37232;DHT22;23125;48.156;15.954;2022-11-20T16:05:55;7.50;62.20
37232;DHT22;23125;48.156;15.954;2022-11-20T16:08:21;7.40;62.20
37232;DHT22;23125;48.156;15.954;2022-11-20T16:10:47;7.40;62.20
37232;DHT22;23125;48.156;15.954;2022-11-20T16:13:17;7.30;62.20
37232;DHT22;23125;48.156;15.954;2022-11-20T16:16:23;7.30;62.20
37232;DHT22;23125;48.156;15.954;2022-11-20T16:18:50;7.20;62.20
37232;DHT22;23125;48.156;15.954;2022-11-20T16:21:17;7.20;62.20
37232;DHT22;23125;48.156;15.954;2022-11-20T16:23:43;7.20;62.20
37232;DHT22;23125;48.156;15.954;2022-11-20T16:26:16;7.10;62.20
37232;DHT22;23125;48.156;15.954;2022-11-20T16:28:43;7.10;62.20
37232;DHT22;23125;48.156;15.954;2022-11-20T16:31:11;7.00;62.10
37232;DHT22;23125;48.156;15.954;2022-11-20T16:33:38;7.00;62.20
37232;DHT22;23125;48.156;15.954;2022-11-20T16:38:34;7.00;62.20
37232;DHT22;23125;48.156;15.954;2022-11-20T16:41:00;6.90;62.00
37232;DHT22;23125;48.156;15.954;2022-11-20T16:43:27;6.90;62.00
37232;DHT22;23125;48.156;15.954;2022-11-20T16:45:53;6.80;62.00
37232;DHT22;23125;48.156;15.954;2022-11-20T16:48:19;6.70;62.00
37232;DHT22;23125;48.156;15.954;2022-11-20T16:50:50;6.70;62.20
37232;DHT22;23125;48.156;15.954;2022-11-20T16:53:20;6.70;62.20
37232;DHT22;23125;48.156;15.954;2022-11-20T16:55:46;6.60;62.20
37232;DHT22;23125;48.156;15.954;2022-11-20T16:58:13;6.60;62.10
37232;DHT22;23125;48.156;15.954;2022-11-20T17:00:40;6.50;62.20
37232;DHT22;23125;48.156;15.954;2022-11-20T17:03:10;6.50;62.40
37232;DHT22;23125;48.156;15.954;2022-11-20T17:05:36;6.50;62.50
37232;DHT22;23125;48.156;15.954;2022-11-20T17:08:02;6.50;62.60
37232;DHT22;23125;48.156;15.954;2022-11-20T17:10:28;6.50;62.70
37232;DHT22;23125;48.156;15.954;2022-11-20T17:12:54;6.50;62.70
37232;DHT22;23125;48.156;15.954;2022-11-20T17:15:20;6.50;62.70
37232;DHT22;23125;48.156;15.954;2022-11-20T17:17:46;6.50;62.80
37232;DHT22;23125;48.156;15.954;2022-11-20T17:20:12;6.50;62.80
37232;DHT22;23125;48.156;15.954;2022-11-20T17:22:38;6.50;62.90
37232;DHT22;23125;48.156;15.954;2022-11-20T17:25:04;6.50;63.00
37232;DHT22;23125;48.156;15.954;2022-11-20T17:27:30;6.50;63.00
37232;DHT22;23125;48.156;15.954;2022-11-20T17:29:56;6.50;63.00
37232;DHT22;23125;48.156;15.954;2022-11-20T17:32:23;6.50;63.10
37232;DHT22;23125;48.156;15.954;2022-11-20T17:34:49;6.50;63.20
37232;DHT22;23125;48.156;15.954;2022-11-20T17:37:15;6.60;63.30
37232;DHT22;23125;48.156;15.954;2022-11-20T17:39:41;6.60;63.30
37232;DHT22;23125;48.156;15.954;2022-11-20T17:42:07;6.60;63.30